Latest Weather Observations for Renmark Airport

IDS60801

Issued at 6:11 am CDT Friday 21 January 2022 (issued every 10 minutes, with the page automatically refreshed every 10 minutes)

About weather observations | Map of weather stations | Latest weather observations for SA | Other Formats
Station Details ID: 024048 Name: RENMARK AERO Lat: -34.20 Lon: 140.68 Height: 31.5 m
Data from the previous 72 hours. | See also: Recent months at Renmark Airport
Date/Time
CDT
Temp
°C
App
Temp
°C
Dew
Point
°C
Rel
Hum
%
Delta-T
°C
Wind Press
QNH
hPa
Press
MSL
hPa
Rain since
9am
mm
Dir  Spd
km/h
Gust
km/h
Spd
kts
Gust
kts
21/06:00am 23.1 19.9 11.2 47 6.6 E 19 24 10 13 1019.4 1019.2 0.0
21/05:30am 23.2 20.3 10.9 46 6.8 E 17 26 9 14 1019.2 1019.0 0.0
21/05:00am 23.4 20.8 10.8 45 7.0 ESE 15 22 8 12 1019.1 1018.9 0.0
21/04:30am 23.3 20.5 10.0 43 7.3 ESE 15 19 8 10 1019.0 1018.8 0.0
21/04:00am 23.7 20.9 10.0 42 7.5 ESE 15 19 8 10 1019.0 1018.8 0.0
21/03:30am 24.1 21.2 9.7 40 7.9 E 15 19 8 10 1018.8 1018.6 0.0
21/03:00am 24.6 21.3 9.7 39 8.1 E 17 24 9 13 1018.9 1018.7 0.0
21/02:30am 25.1 21.2 9.4 37 8.6 E 20 28 11 15 1018.7 1018.5 0.0
21/02:00am 25.4 21.7 9.3 36 8.8 E 19 24 10 13 1018.9 1018.7 0.0
21/01:30am 25.8 21.5 9.2 35 9.1 E 22 30 12 16 1019.0 1018.8 0.0
21/01:00am 26.3 21.2 9.2 34 9.4 ESE 26 39 14 21 1019.0 1018.8 0.0
21/12:30am 26.8 21.3 9.2 33 9.6 ESE 28 43 15 23 1019.1 1018.9 0.0
21/12:00am 27.2 21.3 9.1 32 9.9 ESE 30 43 16 23 1019.2 1019.0 0.0
 
Date/Time
CDT
Temp
°C
App
Temp
°C
Dew
Point
°C
Rel
Hum
%
Delta-T
°C
Wind Press
QNH
hPa
Press
MSL
hPa
Rain since
9am
mm
Dir  Spd
km/h
Gust
km/h
Spd
kts
Gust
kts
20/11:30pm 27.7 21.8 9.0 31 10.3 ESE 30 44 16 24 1019.0 1018.8 0.0
20/11:00pm 28.1 22.5 8.9 30 10.6 ESE 28 41 15 22 1018.8 1018.6 0.0
20/10:50pm 28.1 22.5 8.9 30 10.6 ESE 28 46 15 25 1018.7 1018.5 0.0
20/10:30pm 28.6 22.3 8.8 29 10.9 ESE 32 41 17 22 1018.5 1018.3 0.0
20/10:00pm 28.9 22.9 8.6 28 11.2 ESE 30 43 16 23 1018.2 1018.0 0.0
20/09:30pm 29.5 24.2 8.5 27 11.5 ESE 26 37 14 20 1017.6 1017.4 0.0
20/09:00pm 30.3 25.7 8.1 25 12.2 ESE 22 28 12 15 1017.4 1017.2 0.0
20/08:30pm 30.8 26.5 7.9 24 12.6 E 20 32 11 17 1017.1 1016.9 0.0
20/08:00pm 31.4 27.1 7.8 23 13.0 E 20 32 11 17 1016.9 1016.7 0.0
20/07:30pm 32.4 27.4 8.0 22 13.5 E 24 32 13 17 1016.8 1016.6 0.0
20/07:00pm 32.8 28.1 7.6 21 13.9 E 22 30 12 16 1016.8 1016.6 0.0
20/06:30pm 33.1 27.3 7.9 21 14.0 E 28 39 15 21 1016.7 1016.5 0.0
20/06:00pm 33.2 27.2 7.2 20 14.3 ESE 28 39 15 21 1016.5 1016.3 0.0
20/05:30pm 33.7 27.8 7.6 20 14.5 E 28 41 15 22 1016.5 1016.3 0.0
20/05:00pm 33.4 26.9 8.1 21 14.1 E 32 44 17 24 1016.7 1016.5 0.0
20/04:41pm 33.6 27.7 7.6 20 14.4 E 28 46 15 25 1017.0 1016.8 0.0
20/04:30pm 33.5 27.2 7.5 20 14.4 E 30 43 16 23 1017.1 1016.9 0.0
20/04:03pm 33.6 27.7 7.6 20 14.4 ESE 28 46 15 25 1017.2 1017.0 0.0
20/04:00pm 33.4 27.3 8.1 21 14.1 E 30 41 16 22 1017.4 1017.2 0.0
20/03:30pm 32.9 26.3 7.7 21 13.9 E 32 43 17 23 1017.9 1017.7 0.0
20/03:19pm 33.2 27.2 7.2 20 14.3 E 28 46 15 25 1017.8 1017.6 0.0
20/03:00pm 33.3 27.4 7.3 20 14.3 E 28 41 15 22 1018.2 1018.0 0.0
20/02:30pm 31.5 24.8 7.2 22 13.2 ESE 32 44 17 24 1018.6 1018.4 0.0
20/02:00pm 31.6 25.8 8.0 23 13.0 E 28 43 15 23 1018.9 1018.7 0.0
20/01:30pm 30.9 24.2 8.0 24 12.6 E 33 46 18 25 1019.3 1019.1 0.0
20/01:00pm 30.8 24.2 7.9 24 12.6 E 32 44 17 24 1019.6 1019.4 0.0
20/12:49pm 31.2 25.2 8.8 25 12.5 E 30 54 16 29 1019.6 1019.4 0.0
20/12:30pm 30.2 23.8 8.6 26 11.9 E 32 44 17 24 1020.0 1019.8 0.0
20/12:00pm 29.9 23.4 8.3 26 11.8 ESE 32 44 17 24 1020.2 1020.0 0.0
20/11:30am 28.6 21.2 8.3 28 11.1 E 37 48 20 26 1020.5 1020.3 0.0
20/11:00am 28.0 22.3 9.8 32 10.2 E 30 41 16 22 1020.8 1020.6 0.0
20/10:30am 27.2 21.4 10.8 36 9.2 E 32 41 17 22 1021.2 1021.0 0.0
20/10:00am 26.8 22.3 11.3 38 8.8 E 26 37 14 20 1021.3 1021.1 0.0
20/09:30am 25.8 20.6 11.6 41 8.1 E 30 37 16 20 1021.4 1021.2 0.0
20/09:00am 24.6 19.4 11.5 43 7.4 ESE 30 39 16 21 1021.4 1021.2 0.0
20/08:30am 23.9 18.8 11.9 47 6.8 ESE 30 41 16 22 1021.3 1021.1 0.0
20/08:00am 23.5 18.7 12.8 51 6.2 ESE 30 39 16 21 1021.0 1020.8 0.0
20/07:30am 23.5 19.9 14.2 56 5.5 ESE 26 35 14 19 1020.7 1020.5 0.0
20/07:00am 23.2 21.5 14.7 58 5.0 ESE 17 24 9 13 1020.7 1020.5 0.0
20/06:30am 22.8 21.2 14.9 61 4.7 E 17 24 9 13 1020.4 1020.2 0.0
20/06:00am 23.1 20.8 14.7 59 5.0 E 20 30 11 16 1019.7 1019.5 0.0
20/05:30am 23.4 21.2 14.9 59 5.0 E 20 30 11 16 1019.7 1019.5 0.0
20/05:00am 23.7 21.8 15.2 59 5.1 E 19 24 10 13 1019.2 1019.0 0.0
20/04:30am 23.8 22.4 15.6 60 4.9 NE 17 24 9 13 1018.8 1018.6 0.0
20/04:00am 23.8 23.3 15.8 61 4.8 NE 13 17 7 9 1018.4 1018.2 0.0
20/03:30am 24.1 24.0 16.1 61 4.9 NE 11 20 6 11 1018.0 1017.8 0.0
20/03:00am 25.0 24.2 16.2 58 5.4 ENE 15 20 8 11 1018.0 1017.8 0.0
20/02:30am 25.3 24.7 16.7 59 5.3 ENE 15 26 8 14 1017.8 1017.6 0.0
20/02:00am 25.9 25.7 16.7 57 5.7 ENE 13 19 7 10 1017.9 1017.7 0.0
20/01:30am 26.4 25.4 16.6 55 6.1 ENE 17 22 9 12 1017.9 1017.7 0.0
20/01:00am 27.0 25.6 16.6 53 6.5 ENE 19 24 10 13 1017.8 1017.6 0.0
20/12:30am 27.6 26.2 16.9 52 6.7 ENE 20 28 11 15 1017.4 1017.2 0.0
20/12:00am 27.9 27.1 17.1 51 6.8 E 17 22 9 12 1017.2 1017.0 0.0
 
Date/Time
CDT
Temp
°C
App
Temp
°C
Dew
Point
°C
Rel
Hum
%
Delta-T
°C
Wind Press
QNH
hPa
Press
MSL
hPa
Rain since
9am
mm
Dir  Spd
km/h
Gust
km/h
Spd
kts
Gust
kts
19/11:30pm 28.5 27.1 17.1 50 7.2 E 20 30 11 16 1017.0 1016.8 0.0
19/11:00pm 28.9 26.9 16.5 47 7.7 E 22 30 12 16 1016.8 1016.6 0.0
19/10:30pm 29.4 27.5 16.6 46 8.0 ESE 22 30 12 16 1016.5 1016.3 0.0
19/10:00pm 29.9 28.5 15.6 42 8.8 ESE 17 22 9 12 1016.1 1015.9 0.0
19/09:30pm 30.2 27.8 15.5 41 9.1 ESE 22 32 12 17 1015.3 1015.2 0.0
19/09:00pm 30.2 29.1 13.0 34 10.2 E 11 15 6 8 1014.7 1014.6 0.0
19/08:30pm 31.0 28.6 12.8 32 10.8 E 17 22 9 12 1014.4 1014.3 0.0
19/08:00pm 32.0 29.5 12.3 30 11.7 E 17 22 9 12 1013.9 1013.8 0.0
19/07:30pm 33.0 30.3 10.4 25 13.0 ESE 15 20 8 11 1013.6 1013.5 0.0
19/07:00pm 33.2 30.0 9.9 24 13.4 ESE 17 22 9 12 1013.4 1013.3 0.0
19/06:30pm 34.4 30.2 9.6 22 14.2 SE 22 33 12 18 1013.2 1013.1 0.0
19/06:00pm 33.8 29.1 9.1 22 14.0 SE 24 37 13 20 1013.3 1013.2 0.0
19/05:30pm 33.3 28.8 8.7 22 13.8 SE 22 35 12 19 1013.6 1013.5 0.0
19/05:00pm 33.4 28.8 6.6 19 14.6 SE 20 32 11 17 1013.6 1013.5 0.0
19/04:30pm 33.3 28.3 6.6 19 14.5 SE 22 33 12 18 1014.1 1014.0 0.0
19/04:00pm 32.4 27.4 6.6 20 14.0 SSE 22 39 12 21 1014.4 1014.3 0.0
19/03:30pm 31.9 27.6 6.9 21 13.6 SE 19 30 10 16 1014.8 1014.7 0.0
19/03:00pm 30.9 27.3 6.7 22 13.0 SE 15 26 8 14 1015.1 1015.0 0.0
19/02:30pm 30.5 26.0 7.0 23 12.7 SSE 20 32 11 17 1015.5 1015.3 0.0
19/02:00pm 29.9 25.5 7.2 24 12.3 S 20 35 11 19 1015.8 1015.6 0.0
19/01:30pm 28.8 24.3 6.8 25 11.7 S 20 33 11 18 1016.2 1016.0 0.0
19/01:00pm 28.2 24.0 7.4 27 11.2 S 19 33 10 18 1016.5 1016.3 0.0
19/12:30pm 27.1 22.3 7.5 29 10.5 SSE 22 35 12 19 1016.9 1016.7 0.0
19/12:00pm 26.2 22.6 8.2 32 9.7 SSE 17 26 9 14 1017.2 1017.0 0.0
19/11:30am 25.6 22.2 9.0 35 9.0 SSE 17 26 9 14 1017.4 1017.2 0.0
19/11:00am 23.6 19.6 8.1 37 8.2 SSE 19 26 10 14 1017.5 1017.3 0.0
19/10:30am 22.0 18.4 8.2 41 7.2 SSE 17 26 9 14 1017.6 1017.4 0.0
19/10:00am 21.0 17.1 8.6 45 6.5 SSE 19 26 10 14 1017.8 1017.6 0.0
19/09:30am 20.0 15.8 8.4 47 6.0 SSE 20 24 11 13 1018.1 1017.9 0.0
19/09:00am 19.1 14.8 7.8 48 5.8 SSE 20 30 11 16 1018.1 1017.9 0.0
19/08:30am 18.2 13.2 8.2 52 5.1 SSE 24 32 13 17 1017.9 1017.7 0.0
19/08:00am 17.4 12.4 8.0 54 4.8 SSE 24 32 13 17 1017.6 1017.4 0.0
19/07:30am 16.6 12.4 8.1 57 4.3 SSE 20 28 11 15 1017.4 1017.2 0.0
19/07:00am 16.3 12.2 8.0 58 4.2 SSE 19 30 10 16 1016.9 1016.7 0.0
19/06:30am 15.8 11.7 7.8 59 4.0 SSE 19 28 10 15 1016.5 1016.3 0.0
19/06:00am 15.9 11.5 7.4 57 4.2 SSE 20 28 11 15 1016.1 1015.9 0.0
19/05:30am 16.4 11.7 7.6 56 4.4 SSE 22 28 12 15 1015.7 1015.5 0.0
19/05:00am 16.8 12.5 7.7 55 4.6 SSE 20 28 11 15 1015.3 1015.2 0.0
19/04:30am 17.4 12.4 8.0 54 4.8 SSE 24 37 13 20 1015.2 1015.1 0.0
19/04:00am 18.0 11.8 8.0 52 5.1 SSE 30 43 16 23 1014.9 1014.8 0.0
19/03:30am 18.6 13.5 7.7 49 5.6 SSE 24 35 13 19 1014.8 1014.7 0.0
19/03:00am 19.4 13.6 7.8 47 6.0 SSE 28 41 15 22 1014.6 1014.5 0.0
19/02:30am 19.8 14.8 8.2 47 6.0 S 24 30 13 16 1014.5 1014.4 0.0
19/02:00am 20.3 16.0 8.0 45 6.4 S 20 28 11 15 1014.5 1014.4 0.0
19/01:30am 21.0 16.4 8.0 43 6.8 S 22 32 12 17 1014.4 1014.3 0.0
19/01:00am 21.4 16.3 7.6 41 7.1 S 24 35 13 19 1014.2 1014.1 0.0
19/12:30am 22.0 17.1 7.0 38 7.7 S 22 32 12 17 1013.9 1013.8 0.0
19/12:00am 22.5 17.2 6.7 36 8.1 S 24 30 13 16 1013.5 1013.4 0.0
 
Date/Time
CDT
Temp
°C
App
Temp
°C
Dew
Point
°C
Rel
Hum
%
Delta-T
°C
Wind Press
QNH
hPa
Press
MSL
hPa
Rain since
9am
mm
Dir  Spd
km/h
Gust
km/h
Spd
kts
Gust
kts
18/11:30pm 23.0 18.4 6.7 35 8.4 S 20 26 11 14 1013.2 1013.1 0.0
18/11:00pm 23.4 18.8 5.8 32 8.9 SSW 19 28 10 15 1013.2 1013.1 0.0
18/10:30pm 23.8 19.4 4.7 29 9.5 SSW 17 24 9 13 1013.1 1013.0 0.0
18/10:00pm 24.0 20.4 4.9 29 9.6 SW 13 17 7 9 1013.2 1013.1 0.0
18/09:30pm 24.6 21.0 4.9 28 9.9 SW 13 17 7 9 1013.0 1012.9 0.0
18/09:00pm 25.1 21.6 5.3 28 10.1 SW 13 17 7 9 1012.7 1012.6 0.0
18/08:30pm 25.8 21.8 4.9 26 10.6 SSW 15 22 8 12 1012.5 1012.4 0.0
18/08:00pm 26.3 22.0 5.3 26 10.7 SSW 17 24 9 13 1012.3 1012.2 0.0
18/07:30pm 26.7 22.6 6.2 27 10.7 SW 17 28 9 15 1012.1 1012.0 0.0
18/07:00pm 26.9 22.6 6.9 28 10.6 SSW 19 26 10 14 1011.8 1011.7 0.0
18/06:30pm 27.2 22.8 7.6 29 10.5 SSW 20 30 11 16 1011.4 1011.3 0.0
18/06:00pm 27.2 22.5 7.6 29 10.5 SSW 22 30 12 16 1011.5 1011.4 0.0
18/05:30pm 27.7 22.9 7.5 28 10.8 SW 22 32 12 17 1011.7 1011.6 0.0
18/05:00pm 28.0 23.7 7.8 28 10.9 SSW 20 33 11 18 1012.0 1011.9 0.0
18/04:30pm 28.1 25.1 7.9 28 10.9 SW 13 20 7 11 1012.2 1012.1 0.0
18/04:00pm 27.5 23.9 8.4 30 10.4 SW 17 26 9 14 1012.3 1012.2 0.0
18/03:30pm 27.4 23.3 7.8 29 10.6 SW 19 28 10 15 1012.7 1012.6 0.0
18/03:00pm 28.0 23.8 8.3 29 10.7 SSW 20 28 11 15 1012.8 1012.7 0.0
18/02:30pm 27.6 23.3 8.0 29 10.6 SSE 20 30 11 16 1012.9 1012.8 0.0
18/02:00pm 27.4 23.4 8.3 30 10.4 SSW 19 33 10 18 1013.3 1013.2 0.0
18/01:30pm 26.3 21.7 8.3 32 9.7 S 22 32 12 17 1013.7 1013.6 0.0
18/01:00pm 26.3 22.1 8.3 32 9.7 SSW 20 30 11 16 1014.0 1013.9 0.0
18/12:30pm 24.9 20.1 8.8 36 8.7 S 24 32 13 17 1014.3 1014.2 0.0
18/12:00pm 23.5 18.3 8.8 39 7.9 S 26 35 14 19 1014.6 1014.5 0.0
18/11:30am 23.0 19.0 9.0 41 7.5 S 20 30 11 16 1015.1 1015.0 0.0
18/11:00am 22.6 18.2 9.0 42 7.3 S 22 37 12 20 1015.6 1015.4 0.0
18/10:30am 20.8 16.8 9.1 47 6.2 S 20 30 11 16 1016.2 1016.0 0.0
18/10:00am 20.2 15.0 8.8 48 6.0 S 26 35 14 19 1016.2 1016.0 0.0
18/09:30am 18.7 14.6 8.7 52 5.2 S 20 28 11 15 1015.9 1015.7 0.0
18/09:00am 17.7 13.1 8.0 53 4.9 S 22 32 12 17 1015.9 1015.7 0.0
18/08:30am 17.1 12.5 8.0 55 4.6 S 22 33 12 18 1015.9 1015.7 0.0
18/08:00am 16.3 12.0 7.8 57 4.3 S 20 28 11 15 1015.3 1015.2 0.0
18/07:30am 16.1 11.9 8.1 59 4.0 SSW 20 28 11 15 1015.2 1015.1 0.0
18/07:00am 16.1 12.1 8.3 60 4.0 SSW 19 26 10 14 1014.9 1014.8 0.0
18/06:30am 16.2 12.6 8.4 60 4.0 SSW 17 24 9 13 1014.6 1014.5 0.0

Other formats

Comma delimited format used in spreadsheet applications
http://www.bom.gov.au/fwo/IDS60801/IDS60801.95687.axf

JavaScript Object Notation format (JSON) in row-major order
http://www.bom.gov.au/fwo/IDS60801/IDS60801.95687.json

Data quality

Most of these data are generated automatically and are frequently updated. Quality checks on data are not normally performed. It is possible for incorrect values to appear. Refer to information at About Latest Weather Observations and please check the disclaimer before using these data.